Elbow Lake, MN

9:50 PM CST on February 25, 2017 (GMT -0600)
Elbow Lake | | Change Station
Active Advisory: Special Statement

Elev 1204 ft 45.99 °N, 95.99 °W | Updated 11 minutes ago

Snow
Snow
26 °F
Feels Like 18 °F
N
7
Wind Variable Wind from West

Today
High -- | Low -- °F
--% Chance of Precip.
Yesterday
High -- | Low -- °F
Precip. -- in
Pressure 29.73 in
Visibility 2.0 miles
Clouds Scattered Clouds 900 ft
Scattered Clouds 1700 ft
Overcast 2500 ft
Windchill 18 °F
Dew Point 25 °F
Humidity 99%
Rainfall 0.00 in
Snow Depth Not available.
7:09 AM 6:05 PM
Waning Crescent, 0% visible
METAR KY63 260339Z AUTO 28006KT 2SM -SN SCT009 SCT017 OVC025 M04/M04 A2973 RMK AO2 T10361038
Pressure 29.73 in
Visibility 2.0 miles
Clouds Scattered Clouds 900 ft
Scattered Clouds 1700 ft
Overcast 2500 ft
Windchill 18 °F
Dew Point 25 °F
Humidity 99%
Rainfall 0.00 in
Snow Depth Not available.
7:09 AM 6:05 PM
Waning Crescent, 0% visible
METAR KY63 260339Z AUTO 28006KT 2SM -SN SCT009 SCT017 OVC025 M04/M04 A2973 RMK AO2 T10361038

Get Your Daily Forecast Email!

Thanks for signing up!

Be on the lookout for a verification email in your inbox.

You'll start receiving the daily forecast at 8 AM.

×

10-Day Weather Forecast

Almanac

Astronomy

Feb. 25, 2017 Rise Set
Actual Time
Civil Twilight
Nautical Twilight
Astronomical Twilight
Moon
Length of Visible Light
Length of Day
Tomorrow will be .
, % of the Moon is Illuminated

Today's Extremes

State Highs State Lows

Community

WunderPhotos

Upload Photos

1,962,540 photos uploaded!

WunderBlog® & News

Nearby

Air Quality

  Air Quality AQ Index Pollutant
Not available.

Snow Depth

Station Depth Elevation

Earthquake Activity

City Distance Mag. Time & Date
Minimum magnitude displayed is 2.5.

Coastal Water Temperatures

Place Temperature

Stations

Nearby Weather Stations

Station Location Temp. Windchill Dew Point Humidity Wind Precip. Elev Updated Type
                   

Watches & Warnings

Special Statement
Issued: 9:34 PM CST Feb. 25, 2017 – National Weather Service

... Periods of snow producing slippery roads...

Periods of snow will continue to produce slippery roads and
reduced visibility across Grant, Otter Tail, and Wadena counties
tonight. Snowfall of 2 to 4 inches is expected by midnight
tonight, with the snow diminishing by that time. Motorists are
advised to use caution when traveling and allow for extra time.


Knutsvig


934 PM CST Sat Feb 25 2017

... Periods of snow producing slippery roads...

Periods of snow will continue to produce slippery roads and
reduced visibility across Grant, Otter Tail, and Wadena counties
tonight. Snowfall of 2 to 4 inches is expected by midnight
tonight, with the snow diminishing by that time. Motorists are
advised to use caution when traveling and allow for extra time.


Knutsvig